Time;durP1;ratioP1;P1;durP2;ratioP2;P2;SDS_P1;SDS_P2;PMS_P1;PMS_P2;Temp;Humidity;BMP_temperature;BMP_pressure;BME280_temperature;BME280_humidity;BME280_pressure;Samples;Min_cycle;Max_cycle;Signal;HPM_P1;HPM_P2
2021/01/04 00:02:56;;;;;;;36.28;25.85;;;;;;;5.03;99.76;99987.81;5076501;28;20048;-78
2021/01/04 00:06:16;;;;;;;37.85;25.17;;;;;;;5.06;99.97;99993.75;5064052;28;20052;-75
2021/01/04 00:10:10;;;;;;;33.20;24.90;;;;;;;5.10;99.86;99979.28;5076375;28;20047;-77
2021/01/04 00:13:34;;;;;;;37.28;24.52;;;;;;;5.15;99.60;99989.59;4994953;28;20053;-78
2021/01/04 00:17:27;;;;;;;36.58;23.98;;;;;;;5.19;99.74;99994.59;4994898;28;20049;-77
2021/01/04 00:21:01;;;;;;;35.97;25.15;;;;;;;5.20;99.53;99998.09;4994526;28;20048;-77
2021/01/04 00:24:14;;;;;;;;;;;;;;;5.14;99.50;99991.41;4995479;28;20057;-77
2021/01/04 00:28:04;;;;;;;44.33;25.60;;;;;;;5.12;99.71;99993.34;4994341;28;19917;-77
2021/01/04 00:31:17;;;;;;;33.58;23.85;;;;;;;5.20;99.41;99984.81;4977556;28;20070;-75
2021/01/04 00:34:30;;;;;;;41.20;25.77;;;;;;;5.18;99.34;99981.41;4994679;28;20053;-75
2021/01/04 00:37:38;;;;;;;38.00;25.17;;;;;;;5.24;99.58;99987.13;4994164;28;20535;-75
2021/01/04 00:40:57;;;;;;;36.58;25.40;;;;;;;5.26;99.50;99995.84;4982893;28;20057;-77
2021/01/04 00:44:04;;;;;;;33.28;23.85;;;;;;;5.22;99.17;99974.91;4994514;28;20130;-77
2021/01/04 00:47:34;;;;;;;34.42;25.20;;;;;;;5.28;98.97;99985.94;4994446;28;20494;-77
2021/01/04 00:50:48;;;;;;;37.80;24.55;;;;;;;5.35;99.22;99982.84;5058606;28;20048;-76
2021/01/04 00:53:53;;;;;;;34.70;24.25;;;;;;;5.31;98.83;99971.56;5062983;28;20047;-79
2021/01/04 00:57:26;;;;;;;36.13;24.52;;;;;;;5.30;98.65;99977.88;5075342;28;20063;-78
2021/01/04 01:00:38;;;;;;;34.63;23.08;;;;;;;5.38;98.74;99988.81;5075441;28;20048;-78
2021/01/04 01:03:52;;;;;;;32.33;22.83;;;;;;;5.36;98.58;99988.06;5062395;28;20047;-76
2021/01/04 01:07:02;;;;;;;33.38;23.75;;;;;;;5.36;98.55;99982.72;5063013;28;20048;-77
2021/01/04 01:10:09;;;;;;;34.08;22.98;;;;;;;5.32;98.60;99973.28;5062912;28;20040;-77
2021/01/04 01:13:16;;;;;;;30.42;22.65;;;;;;;5.36;98.40;99982.72;5075128;28;20347;-77
2021/01/04 01:16:26;;;;;;;33.85;22.23;;;;;;;5.38;98.27;99983.50;5062670;28;20039;-77
2021/01/04 01:19:50;;;;;;;28.25;21.13;;;;;;;5.37;98.41;99989.75;5075071;28;20114;-77
2021/01/04 01:22:55;;;;;;;;;;;;;;;5.30;98.09;99988.50;5062840;28;20043;-75
2021/01/04 01:26:12;;;;;;;31.63;21.92;;;;;;;5.24;98.21;99987.13;5074932;28;19917;-76
2021/01/04 01:29:35;;;;;;;31.35;20.90;;;;;;;5.20;98.41;99987.47;5074738;28;20043;-77
2021/01/04 01:32:42;;;;;;;31.15;21.30;;;;;;;5.21;98.44;99991.81;5075057;28;20486;-78
2021/01/04 01:36:21;;;;;;;29.60;21.13;;;;;;;5.23;98.33;99995.22;5074142;28;20048;-76
2021/01/04 01:40:03;;;;;;;32.42;21.27;;;;;;;5.20;98.52;99984.81;5074140;28;20055;-78
2021/01/04 01:43:30;;;;;;;28.98;20.70;;;;;;;5.21;98.31;99991.81;5074619;28;20490;-77
2021/01/04 01:46:45;;;;;;;46.25;22.38;;;;;;;5.16;98.31;99984.16;5073442;28;20399;-76
2021/01/04 01:49:55;;;;;;;35.00;21.60;;;;;;;5.21;98.49;99994.47;5074429;28;20487;-76
2021/01/04 01:53:25;;;;;;;37.65;24.08;;;;;;;5.21;98.35;99990.00;5074666;28;20051;-75
2021/01/04 01:57:02;;;;;;;39.25;24.90;;;;;;;5.20;98.53;100008.75;5074473;28;20498;-76
2021/01/04 02:00:28;;;;;;;41.03;25.27;;;;;;;5.17;98.29;99993.00;4973970;28;20067;-76
2021/01/04 02:03:55;;;;;;;41.45;24.20;;;;;;;5.20;98.37;99990.13;4973479;28;20042;-78
2021/01/04 02:07:13;;;;;;;38.58;23.10;;;;;;;5.29;98.46;100002.75;4973429;28;20069;-78
2021/01/04 02:10:42;;;;;;;38.42;24.20;;;;;;;5.25;98.70;100003.94;4973678;28;20054;-79
2021/01/04 02:14:12;;;;;;;33.60;22.33;;;;;;;5.30;98.50;100000.97;4974694;28;20045;-78
2021/01/04 02:17:52;;;;;;;36.50;22.90;;;;;;;5.31;98.56;100002.66;4968963;28;20149;-77
2021/01/04 02:21:38;;;;;;;34.50;22.65;;;;;;;5.33;98.22;100006.06;4988089;28;20053;-77
2021/01/04 02:24:42;;;;;;;36.40;22.48;;;;;;;5.32;98.29;99993.72;4986282;28;20069;-77
2021/01/04 02:27:53;;;;;;;37.90;22.45;;;;;;;5.33;97.87;100001.59;4992029;28;20053;-77
2021/01/04 02:30:58;;;;;;;36.90;22.55;;;;;;;5.31;98.46;99995.50;4992600;28;20433;-76
2021/01/04 02:34:06;;;;;;;33.90;21.30;;;;;;;5.33;98.16;99990.09;4984109;28;20050;-78
2021/01/04 02:37:12;;;;;;;36.28;22.75;;;;;;;5.33;98.29;99996.28;5094051;28;20055;-77
2021/01/04 02:40:17;;;;;;;32.22;22.73;;;;;;;5.33;97.79;99995.41;5081631;28;20418;-77
2021/01/04 02:43:22;;;;;;;34.28;23.52;;;;;;;5.30;98.06;99980.53;5093903;28;20051;-77
2021/01/04 02:46:26;;;;;;;34.25;22.33;;;;;;;5.30;98.01;99975.22;5081427;28;20055;-75
2021/01/04 02:49:50;;;;;;;38.05;23.00;;;;;;;5.31;97.82;99968.91;5093410;28;20399;-75
2021/01/04 02:53:22;;;;;;;36.50;23.15;;;;;;;5.37;97.76;99979.13;5093852;28;20097;-75
2021/01/04 02:56:42;;;;;;;31.88;22.80;;;;;;;5.35;97.97;99973.06;5093811;28;20047;-75
2021/01/04 02:59:58;;;;;;;35.90;22.67;;;;;;;5.30;97.95;99971.69;5093504;28;20047;-76
2021/01/04 03:03:05;;;;;;;36.00;24.95;;;;;;;5.26;97.92;99963.91;5093816;28;20071;-76
2021/01/04 03:06:13;;;;;;;40.08;24.05;;;;;;;5.28;98.00;99955.84;5093804;28;20047;-77
2021/01/04 03:09:17;;;;;;;36.38;24.10;;;;;;;5.28;98.14;99962.97;5093543;28;20059;-77
2021/01/04 03:12:29;;;;;;;34.63;21.75;;;;;;;5.33;97.72;99959.03;5093765;28;20055;-78
2021/01/04 03:15:51;;;;;;;33.50;23.48;;;;;;;5.34;98.16;99960.69;5093687;28;20051;-78
2021/01/04 03:19:09;;;;;;;33.30;22.77;;;;;;;5.37;97.98;99956.97;5093696;28;20059;-75
2021/01/04 03:22:17;;;;;;;37.72;23.40;;;;;;;5.32;98.20;99961.78;5093643;28;20055;-78
2021/01/04 03:25:32;;;;;;;36.40;24.02;;;;;;;5.31;98.25;99976.06;5081169;28;20047;-78
2021/01/04 03:28:36;;;;;;;37.30;24.58;;;;;;;5.30;97.72;99964.56;5097036;28;20067;-80
2021/01/04 03:31:41;;;;;;;37.45;24.67;;;;;;;5.33;98.35;99961.69;5097393;28;20485;-77
2021/01/04 03:34:45;;;;;;;41.53;25.98;;;;;;;5.26;97.88;99953.28;5097048;28;20059;-78
2021/01/04 03:37:50;;;;;;;39.47;23.98;;;;;;;5.33;98.44;99953.69;5097276;28;20067;-77
2021/01/04 03:40:54;;;;;;;41.83;25.15;;;;;;;5.29;98.36;99960.19;5097290;28;20051;-75
2021/01/04 03:43:59;;;;;;;38.78;25.50;;;;;;;5.30;98.29;99961.91;5097047;28;20051;-77
2021/01/04 03:47:04;;;;;;;43.30;25.92;;;;;;;5.21;98.40;99949.25;5096940;28;20051;-77
2021/01/04 03:50:09;;;;;;;40.17;25.02;;;;;;;5.24;98.46;99947.22;5097192;28;20063;-76
2021/01/04 03:53:16;;;;;;;36.78;24.77;;;;;;;5.21;98.77;99950.09;5097078;28;20059;-75
2021/01/04 03:56:21;;;;;;;37.22;24.40;;;;;;;5.22;98.34;99940.31;5096464;28;20055;-76
2021/01/04 03:59:25;;;;;;;40.45;24.38;;;;;;;5.18;99.01;99947.66;5084582;28;20051;-81
2021/01/04 04:02:30;;;;;;;39.75;24.58;;;;;;;5.20;98.94;99951.06;5096816;28;20051;-77
2021/01/04 04:05:34;;;;;;;37.25;23.80;;;;;;;5.26;98.77;99957.75;5083789;28;20055;-76
2021/01/04 04:08:42;;;;;;;34.20;23.13;;;;;;;5.28;98.20;99961.16;5096722;28;20494;-78
2021/01/04 04:11:46;;;;;;;35.53;23.02;;;;;;;5.26;98.20;99955.06;5096598;28;20059;-76
2021/01/04 04:14:51;;;;;;;34.10;22.90;;;;;;;5.31;98.38;99960.91;5096393;28;20071;-77
2021/01/04 04:17:55;;;;;;;34.10;22.63;;;;;;;5.32;98.13;99967.97;5096485;28;20395;-75
2021/01/04 04:21:00;;;;;;;32.65;22.45;;;;;;;5.34;98.20;99966.03;5096501;28;20485;-75
2021/01/04 04:24:05;;;;;;;30.75;22.23;;;;;;;5.38;98.53;99959.53;5096435;28;20055;-76
2021/01/04 04:27:10;;;;;;;35.75;23.42;;;;;;;5.41;97.97;99969.94;5096333;28;20067;-78
2021/01/04 04:30:21;;;;;;;31.63;22.05;;;;;;;5.43;98.20;99964.53;5096009;28;20047;-77
2021/01/04 04:33:25;;;;;;;34.00;23.08;;;;;;;5.43;98.22;99954.69;5096229;28;20047;-78
2021/01/04 04:36:29;;;;;;;33.88;21.95;;;;;;;5.41;98.11;99951.31;5074206;28;20047;-74
2021/01/04 04:39:34;;;;;;;31.30;22.63;;;;;;;5.39;98.19;99955.91;5075448;28;20047;-75
2021/01/04 04:42:39;;;;;;;35.60;23.50;;;;;;;5.30;97.87;99953.91;5075678;28;20383;-75
2021/01/04 04:45:44;;;;;;;34.92;23.45;;;;;;;5.35;97.93;99951.78;5075646;28;20044;-76
2021/01/04 04:48:54;;;;;;;30.52;21.85;;;;;;;5.38;97.91;99954.22;5075705;28;20043;-77
2021/01/04 04:52:08;;;;;;;33.10;22.90;;;;;;;5.36;97.77;99953.47;5075167;28;20047;-76
2021/01/04 04:55:38;;;;;;;32.47;22.65;;;;;;;5.41;98.16;99961.09;5075380;28;20064;-79
2021/01/04 04:58:59;;;;;;;30.25;20.38;;;;;;;5.39;98.00;99941.72;5075510;28;20071;-75
2021/01/04 05:02:24;;;;;;;31.63;22.33;;;;;;;5.37;97.92;99946.31;5074662;28;20044;-76
2021/01/04 05:05:53;;;;;;;32.03;22.67;;;;;;;5.39;97.97;99963.88;5075684;28;20048;-77
2021/01/04 05:09:15;;;;;;;31.15;21.50;;;;;;;5.38;97.99;99964.00;5074344;28;20391;-75
2021/01/04 05:12:24;;;;;;;34.45;22.17;;;;;;;5.39;98.19;99955.91;5075285;28;20395;-79
2021/01/04 05:15:36;;;;;;;29.90;21.27;;;;;;;5.38;98.34;99951.56;5074895;28;20043;-78
2021/01/04 05:19:04;;;;;;;34.22;23.17;;;;;;;5.37;98.18;99952.50;5074357;28;20052;-75
2021/01/04 05:22:45;;;;;;;30.27;21.02;;;;;;;5.39;98.13;99949.72;5073949;28;20056;-74
2021/01/04 05:26:27;;;;;;;30.42;21.55;;;;;;;5.37;98.19;99949.00;5073928;28;20051;-75
2021/01/04 05:30:12;;;;;;;31.65;21.08;;;;;;;5.37;98.18;99951.66;5074870;28;20056;-76
2021/01/04 05:33:30;;;;;;;;;;;;;;;5.28;98.24;99959.31;5075216;28;20263;-77
2021/01/04 05:36:49;;;;;;;31.23;21.20;;;;;;;5.33;98.01;99953.69;5093034;28;20377;-75
2021/01/04 05:40:09;;;;;;;36.13;22.13;;;;;;;5.28;98.46;99962.00;5094875;28;20043;-76
2021/01/04 05:43:26;;;;;;;39.97;23.17;;;;;;;5.18;98.36;99963.63;5094986;28;20058;-75
2021/01/04 05:46:46;;;;;;;33.35;21.88;;;;;;;5.18;98.58;99966.28;5094606;28;20051;-77
2021/01/04 05:50:06;;;;;;;38.20;23.77;;;;;;;5.15;98.82;99961.19;5081893;28;20067;-78
2021/01/04 05:53:11;;;;;;;36.58;23.80;;;;;;;5.13;99.05;99965.78;5094791;28;20051;-75
2021/01/04 05:56:25;;;;;;;42.05;24.58;;;;;;;5.00;98.60;99972.94;5094482;28;20068;-74
2021/01/04 05:59:29;;;;;;;35.53;23.37;;;;;;;5.09;99.01;99971.41;5094951;28;20387;-78
2021/01/04 06:02:34;;;;;;;37.70;23.33;;;;;;;5.12;99.03;99973.84;5094623;28;20744;-77
2021/01/04 06:05:39;;;;;;;37.00;23.92;;;;;;;5.10;99.00;99968.66;5094608;28;20489;-77
2021/01/04 06:08:44;;;;;;;36.65;24.70;;;;;;;5.07;98.87;99968.00;5094528;28;20051;-77
2021/01/04 06:12:05;;;;;;;37.75;24.67;;;;;;;5.06;98.92;99977.78;5081959;28;20054;-76
2021/01/04 06:15:09;;;;;;;36.78;23.95;;;;;;;5.08;98.69;99969.72;5081904;28;20067;-75
2021/01/04 06:18:26;;;;;;;36.45;23.38;;;;;;;5.07;98.85;99968.88;5093783;28;20071;-78
2021/01/04 06:21:38;;;;;;;33.03;21.45;;;;;;;5.07;98.58;99971.53;5094346;28;20061;-77
2021/01/04 06:24:44;;;;;;;36.22;22.45;;;;;;;5.10;98.95;99979.28;5094283;28;20043;-76
2021/01/04 06:27:49;;;;;;;32.08;22.63;;;;;;;5.11;98.32;99975.66;5093907;28;20055;-76
2021/01/04 06:31:03;;;;;;;39.72;26.08;;;;;;;5.05;98.35;99970.78;5094149;28;20051;-75
2021/01/04 06:34:21;;;;;;;;;;;;;;;5.02;98.41;99975.47;5094148;28;20062;-76
2021/01/04 06:37:28;;;;;;;46.83;27.23;;;;;;;5.05;98.23;99969.94;5093629;28;19915;-75
2021/01/04 06:40:45;;;;;;;52.45;30.95;;;;;;;5.09;98.20;99976.72;5093985;28;20047;-76
2021/01/04 06:43:49;;;;;;;46.70;28.63;;;;;;;5.12;98.41;99977.38;5080969;28;20056;-78
2021/01/04 06:47:16;;;;;;;46.97;29.73;;;;;;;5.02;98.18;99980.78;5094027;28;20047;-79
2021/01/04 06:50:37;;;;;;;48.33;30.92;;;;;;;5.05;97.67;99996.53;5100732;28;20059;-79
2021/01/04 06:54:06;;;;;;;50.85;30.92;;;;;;;4.96;97.92;100003.34;5093624;28;20047;-77
2021/01/04 06:57:43;;;;;;;53.83;31.73;;;;;;;4.93;97.99;100006.25;5083636;28;20055;-76
2021/01/04 07:01:09;;;;;;;56.50;34.22;;;;;;;4.97;98.22;100009.50;5080977;28;20048;-78
2021/01/04 07:04:31;;;;;;;55.38;35.47;;;;;;;5.06;98.34;100014.22;5095612;28;20514;-77
2021/01/04 07:08:11;;;;;;;58.22;35.38;;;;;;;5.11;98.13;100014.72;5082475;28;20051;-76
2021/01/04 07:11:35;;;;;;;54.70;35.50;;;;;;;5.15;98.49;100026.84;5039043;28;20614;-76
2021/01/04 07:15:00;;;;;;;139.40;89.07;;;;;;;5.20;97.71;100033.56;5015548;28;20045;-76
2021/01/04 07:18:42;;;;;;;77.10;47.65;;;;;;;5.18;97.88;100032.78;5014781;28;20317;-76
2021/01/04 07:21:58;;;;;;;61.47;38.80;;;;;;;5.19;97.92;100029.19;5022604;28;20052;-77
2021/01/04 07:25:05;;;;;;;61.47;38.50;;;;;;;5.31;97.92;100026.63;5026908;28;20099;-78
2021/01/04 07:28:17;;;;;;;58.72;38.20;;;;;;;5.29;97.82;100026.72;5034298;28;20196;-78
2021/01/04 07:31:43;;;;;;;62.75;39.47;;;;;;;5.30;97.58;100028.41;5033592;28;20108;-78
2021/01/04 07:35:11;;;;;;;66.55;40.80;;;;;;;5.31;97.53;100030.09;5034742;28;20048;-78
2021/01/04 07:38:27;;;;;;;54.50;35.80;;;;;;;5.39;97.46;100033.06;5033709;28;20056;-77
2021/01/04 07:42:08;;;;;;;57.17;36.95;;;;;;;5.38;96.99;100042.03;5022327;28;20048;-80
2021/01/04 07:45:23;;;;;;;53.38;35.85;;;;;;;5.47;97.29;100035.19;5023107;28;20052;-78
2021/01/04 07:48:45;;;;;;;59.55;38.05;;;;;;;5.47;96.62;100035.19;5083938;28;20043;-78
2021/01/04 07:51:57;;;;;;;58.58;38.58;;;;;;;5.53;96.78;100035.59;5096323;28;20394;-77
2021/01/04 07:55:21;;;;;;;54.25;36.60;;;;;;;5.56;96.46;100038.03;5096529;28;20497;-77
2021/01/04 07:58:46;;;;;;;59.42;37.53;;;;;;;5.58;96.24;100037.94;5102916;28;20075;-78
2021/01/04 08:02:28;;;;;;;57.47;36.38;;;;;;;5.64;96.13;100041.00;5095800;28;20497;-78
2021/01/04 08:05:57;;;;;;;56.05;34.95;;;;;;;5.83;95.59;100037.84;5096266;28;20043;-78
2021/01/04 08:09:46;;;;;;;54.15;35.85;;;;;;;6.04;95.21;100038.97;5095736;28;20127;-78
2021/01/04 08:12:50;;;;;;;49.50;32.90;;;;;;;6.35;94.25;100034.84;5095091;28;20043;-77
2021/01/04 08:16:07;;;;;;;46.80;32.38;;;;;;;6.75;92.39;100037.97;5087016;28;20047;-78
2021/01/04 08:19:15;;;;;;;43.33;30.45;;;;;;;6.90;90.86;100037.66;5095274;28;20063;-79
2021/01/04 08:22:52;;;;;;;41.67;30.83;;;;;;;6.95;89.67;100047.97;5092871;28;20043;-77
2021/01/04 08:26:05;;;;;;;39.88;30.13;;;;;;;7.35;88.56;100051.03;5073495;28;20043;-77
2021/01/04 08:29:28;;;;;;;42.30;31.50;;;;;;;7.77;86.86;100050.25;5094619;28;20059;-75
2021/01/04 08:32:43;;;;;;;37.80;28.63;;;;;;;7.81;85.43;100052.56;5077465;28;20553;-76
2021/01/04 08:35:48;;;;;;;37.35;30.08;;;;;;;7.85;84.68;100059.34;5098086;28;20051;-77
2021/01/04 08:39:09;;;;;;;40.03;29.95;;;;;;;7.87;84.78;100062.72;5095047;28;20051;-75
2021/01/04 08:42:23;;;;;;;36.95;29.15;;;;;;;8.17;84.31;100071.91;5095403;28;20395;-74
2021/01/04 08:45:32;;;;;;;36.83;30.15;;;;;;;8.32;83.25;100062.66;5093763;28;20513;-77
2021/01/04 08:48:37;;;;;;;39.00;29.45;;;;;;;8.14;82.54;100065.00;5095625;28;20090;-77
2021/01/04 08:51:43;;;;;;;39.05;30.02;;;;;;;7.92;83.33;100075.75;5063170;28;20039;-78
2021/01/04 08:55:00;;;;;;;37.05;28.73;;;;;;;7.87;83.94;100070.75;5093443;28;20054;-77
2021/01/04 08:58:38;;;;;;;32.40;27.77;;;;;;;7.90;84.33;100084.84;5094692;28;20063;-77
2021/01/04 09:01:49;;;;;;;36.72;29.52;;;;;;;7.79;84.82;100080.38;5001876;28;20249;-76
2021/01/04 09:05:02;;;;;;;33.05;27.17;;;;;;;7.72;84.96;100079.16;5012040;28;20141;-77
2021/01/04 09:08:08;;;;;;;33.67;26.85;;;;;;;7.65;85.14;100081.47;5009864;28;20543;-78
2021/01/04 09:11:13;;;;;;;30.83;25.63;;;;;;;7.64;85.51;100086.94;5001050;28;20114;-77
2021/01/04 09:14:28;;;;;;;33.70;27.98;;;;;;;7.56;84.91;100081.34;5012190;28;20412;-76
2021/01/04 09:17:41;;;;;;;35.47;27.30;;;;;;;7.49;85.83;100093.50;5012472;28;20148;-76
2021/01/04 09:20:51;;;;;;;34.70;29.55;;;;;;;7.44;86.34;100085.84;5000879;28;20513;-77
2021/01/04 09:24:14;;;;;;;36.50;29.92;;;;;;;7.56;86.32;100084.03;5012196;28;20100;-77
2021/01/04 09:27:36;;;;;;;36.85;28.70;;;;;;;7.58;86.43;100087.44;5012055;28;20049;-77
2021/01/04 09:30:40;;;;;;;35.05;27.85;;;;;;;7.53;86.35;100087.78;5012084;28;20137;-77
2021/01/04 09:33:48;;;;;;;37.28;28.42;;;;;;;7.55;86.81;100093.03;5012164;28;20056;-76
2021/01/04 09:36:59;;;;;;;36.50;28.27;;;;;;;7.64;86.62;100077.09;5006432;28;20144;-77
2021/01/04 09:40:10;;;;;;;37.03;27.83;;;;;;;7.94;85.68;100068.44;5053736;28;20044;-77
2021/01/04 09:43:14;;;;;;;36.90;25.95;;;;;;;8.20;83.78;100072.50;5054575;28;20052;-76
2021/01/04 09:47:20;;;;;;;33.35;25.75;;;;;;;8.73;81.59;100075.22;5049295;28;20048;-77
2021/01/04 09:51:00;;;;;;;33.13;24.45;;;;;;;9.69;78.09;100058.69;5011559;28;20073;-75
2021/01/04 09:54:08;;;;;;;35.15;25.65;;;;;;;9.58;76.73;100058.78;4952896;29;20073;-78
2021/01/04 09:57:22;;;;;;;33.40;22.83;;;;;;;9.09;77.30;100059.53;4953714;29;20148;-78
2021/01/04 10:00:33;;;;;;;35.08;24.33;;;;;;;8.73;79.69;100064.53;4953111;29;20050;-79
2021/01/04 10:03:39;;;;;;;34.85;24.33;;;;;;;8.42;80.27;100060.88;4940334;29;20054;-78
2021/01/04 10:06:44;;;;;;;36.25;25.33;;;;;;;7.97;82.87;100057.50;4951758;29;20124;-84
2021/01/04 10:09:53;;;;;;;35.70;25.95;;;;;;;7.84;83.63;100044.28;4952830;29;20062;-81
2021/01/04 10:13:12;;;;;;;35.65;25.83;;;;;;;7.84;83.65;100054.13;4953350;29;20442;-77
2021/01/04 10:16:24;;;;;;;36.67;25.95;;;;;;;7.72;84.16;100050.63;4953210;29;20059;-78
2021/01/04 10:19:56;;;;;;;38.05;27.05;;;;;;;7.54;84.68;100057.44;4952257;29;20087;-78
2021/01/04 10:23:01;;;;;;;44.38;29.20;;;;;;;7.44;85.51;100047.63;4946803;28;20062;-78
2021/01/04 10:26:09;;;;;;;45.53;30.17;;;;;;;7.38;86.44;100043.59;4972414;28;20564;-77
2021/01/04 10:29:19;;;;;;;44.75;30.60;;;;;;;7.33;86.94;100050.31;5002726;28;20052;-77
2021/01/04 10:32:30;;;;;;;42.58;30.77;;;;;;;7.28;87.24;100056.00;5044715;28;20507;-77
2021/01/04 10:35:35;;;;;;;44.42;31.15;;;;;;;7.23;87.46;100051.00;5073342;28;20055;-76
2021/01/04 10:38:45;;;;;;;45.42;31.13;;;;;;;7.28;87.57;100052.50;5092940;28;20525;-77
2021/01/04 10:42:03;;;;;;;49.47;32.05;;;;;;;7.21;87.80;100052.09;5093070;28;20039;-78
2021/01/04 10:45:17;;;;;;;52.53;34.65;;;;;;;7.16;88.07;100052.47;5092636;28;20509;-77
2021/01/04 10:48:30;;;;;;;42.55;30.30;;;;;;;7.07;88.33;100039.84;5093674;28;20075;-77
2021/01/04 10:51:40;;;;;;;44.90;30.65;;;;;;;7.18;88.82;100042.50;5093197;28;20047;-77
2021/01/04 10:54:45;;;;;;;44.20;30.70;;;;;;;7.18;88.52;100020.34;5092354;28;20039;-78
2021/01/04 10:57:53;;;;;;;42.58;28.77;;;;;;;7.22;88.13;100021.78;5079827;28;20066;-77
2021/01/04 11:01:16;;;;;;;45.20;29.63;;;;;;;7.20;87.72;100029.06;5093072;28;20150;-78
2021/01/04 11:04:21;;;;;;;41.88;28.25;;;;;;;7.33;87.42;100013.78;5092729;28;20043;-76
2021/01/04 11:07:31;;;;;;;36.80;26.75;;;;;;;7.46;86.97;100010.94;5092959;28;20051;-78
2021/01/04 11:10:35;;;;;;;38.13;27.00;;;;;;;7.49;86.05;100008.91;5077603;28;20043;-78
2021/01/04 11:13:41;;;;;;;33.65;24.80;;;;;;;7.55;85.84;99999.56;5092366;28;20047;-77
2021/01/04 11:16:50;;;;;;;37.90;25.52;;;;;;;7.42;85.39;99993.50;5092642;28;20059;-78
2021/01/04 11:20:06;;;;;;;38.40;24.38;;;;;;;7.36;86.12;99984.16;5079944;28;20391;-77
2021/01/04 11:23:13;;;;;;;36.33;25.58;;;;;;;7.46;85.85;99982.44;5092992;28;20051;-78
2021/01/04 11:26:18;;;;;;;38.13;26.00;;;;;;;7.39;85.23;99980.38;5092632;28;20051;-78
2021/01/04 11:29:22;;;;;;;32.55;24.17;;;;;;;7.53;85.00;99980.13;5077731;28;20043;-79
2021/01/04 11:32:27;;;;;;;35.88;26.33;;;;;;;7.53;85.60;99977.47;5093027;28;20059;-78
2021/01/04 11:35:32;;;;;;;36.40;26.00;;;;;;;7.51;85.20;99980.25;5079634;28;20047;-77
2021/01/04 11:38:37;;;;;;;34.88;24.08;;;;;;;7.51;85.25;99977.56;5092502;28;20055;-76
2021/01/04 11:41:44;;;;;;;31.98;23.02;;;;;;;7.49;84.65;99971.50;5092504;28;20043;-78
2021/01/04 11:44:49;;;;;;;32.92;24.70;;;;;;;7.32;84.97;99968.50;5079734;28;20051;-75
2021/01/04 11:47:54;;;;;;;31.05;24.15;;;;;;;7.31;85.22;99978.31;5093512;28;20391;-78
2021/01/04 11:50:59;;;;;;;33.70;24.92;;;;;;;7.29;85.61;99969.59;5096044;28;20051;-77
2021/01/04 11:54:05;;;;;;;32.05;23.60;;;;;;;7.37;85.68;99977.00;5082934;28;20055;-79
2021/01/04 11:57:11;;;;;;;30.95;21.85;;;;;;;7.37;84.94;99977.00;5092671;28;20051;-79
2021/01/04 12:00:17;;;;;;;31.55;23.77;;;;;;;7.30;85.70;99979.31;5088247;28;20567;-78
2021/01/04 12:03:22;;;;;;;34.42;24.45;;;;;;;7.18;85.90;99974.97;5083194;28;20063;-78
2021/01/04 12:06:26;;;;;;;37.03;23.85;;;;;;;7.03;86.12;99962.84;5095740;28;20047;-77
2021/01/04 12:09:30;;;;;;;43.55;27.67;;;;;;;6.97;87.05;99953.50;5095772;28;20051;-80
2021/01/04 12:12:35;;;;;;;35.83;26.38;;;;;;;7.10;86.66;99954.22;5083624;28;20395;-80
2021/01/04 12:15:39;;;;;;;39.35;28.25;;;;;;;7.12;87.13;99954.09;5096141;28;20050;-80
2021/01/04 12:18:44;;;;;;;37.72;26.50;;;;;;;7.05;87.25;99953.75;5083544;28;20403;-81
2021/01/04 12:21:48;;;;;;;34.40;25.00;;;;;;;7.10;86.53;99945.38;5082764;28;20122;-85
2021/01/04 12:24:53;;;;;;;31.67;23.77;;;;;;;7.17;86.00;99947.41;5094875;28;20055;-81
2021/01/04 12:27:57;;;;;;;34.90;23.85;;;;;;;7.09;85.82;99939.16;5094546;28;20046;-80
2021/01/04 12:31:01;;;;;;;32.92;23.77;;;;;;;7.07;86.16;99948.28;5075372;28;20067;-79
2021/01/04 12:34:06;;;;;;;31.27;22.10;;;;;;;7.05;85.66;99948.41;5075006;28;20055;-78
2021/01/04 12:37:11;;;;;;;33.00;21.15;;;;;;;6.98;86.24;99949.88;5075406;28;20044;-81
2021/01/04 12:40:18;;;;;;;30.38;21.30;;;;;;;6.97;86.14;99953.50;5086715;28;20415;-78
2021/01/04 12:43:23;;;;;;;32.25;20.58;;;;;;;6.93;85.67;99951.19;5094806;28;20039;-82
2021/01/04 12:46:27;;;;;;;28.60;18.27;;;;;;;6.92;85.28;99955.69;5075647;28;20059;-82
2021/01/04 12:49:31;;;;;;;26.48;17.95;;;;;;;6.91;85.01;99948.63;5078526;28;20593;-78
2021/01/04 12:52:36;;;;;;;22.63;18.35;;;;;;;6.86;84.72;99940.19;5095260;28;20050;-77
2021/01/04 12:55:40;;;;;;;31.02;21.27;;;;;;;6.78;84.73;99942.59;5091507;28;20059;-79
2021/01/04 12:58:46;;;;;;;28.98;21.10;;;;;;;6.71;85.85;99946.72;5093007;28;20047;-78
2021/01/04 13:01:51;;;;;;;34.85;21.95;;;;;;;6.80;86.21;99956.66;5092731;28;20043;-78
2021/01/04 13:04:56;;;;;;;30.58;22.05;;;;;;;6.75;85.71;99948.16;5094474;28;20509;-78
2021/01/04 13:08:00;;;;;;;30.67;21.23;;;;;;;6.75;85.65;99940.16;5094614;28;20058;-81
2021/01/04 13:11:07;;;;;;;28.88;20.70;;;;;;;6.88;85.51;99926.69;5082130;28;20419;-80
2021/01/04 13:14:12;;;;;;;27.75;20.38;;;;;;;6.92;85.04;99929.00;5094591;28;20504;-80
2021/01/04 13:17:18;;;;;;;28.42;19.83;;;;;;;6.95;85.05;99941.25;5094937;28;20505;-80
2021/01/04 13:20:23;;;;;;;29.35;18.58;;;;;;;6.92;84.22;99933.47;5094473;28;20536;-78
2021/01/04 13:23:27;;;;;;;29.27;18.60;;;;;;;6.95;84.02;99944.78;5094648;28;20051;-77
2021/01/04 13:26:41;;;;;;;27.25;19.00;;;;;;;6.73;84.01;99936.75;5093241;28;20047;-76
2021/01/04 13:29:45;;;;;;;;;;;;;;;6.64;84.29;99940.13;5093315;28;20066;-77
2021/01/04 13:32:51;;;;;;;27.73;19.10;;;;;;;6.57;84.98;99945.09;5094528;28;19916;-78
2021/01/04 13:35:56;;;;;;;27.80;18.38;;;;;;;6.55;85.15;99949.72;5093451;28;20134;-80
2021/01/04 13:39:03;;;;;;;26.08;19.35;;;;;;;6.54;85.13;99947.19;5093960;28;20059;-80
2021/01/04 13:42:09;;;;;;;27.15;19.05;;;;;;;6.59;85.52;99955.66;5081629;28;20055;-79
2021/01/04 13:45:14;;;;;;;27.17;18.33;;;;;;;6.64;85.40;99958.78;5094379;28;20055;-80
2021/01/04 13:48:18;;;;;;;27.33;18.67;;;;;;;6.57;85.04;99960.25;5081356;28;20074;-80
2021/01/04 13:51:23;;;;;;;46.78;22.33;;;;;;;6.55;85.51;99949.72;5081765;28;20419;-79
2021/01/04 13:54:28;;;;;;;40.60;20.20;;;;;;;6.61;85.97;99951.06;5093656;28;20063;-81
2021/01/04 13:57:32;;;;;;;53.92;23.38;;;;;;;6.64;85.58;99945.47;5080742;28;20051;-84
2021/01/04 14:00:36;;;;;;;34.50;21.33;;;;;;;6.57;86.06;99939.78;5089202;28;20062;-83
2021/01/04 14:03:41;;;;;;;28.55;20.63;;;;;;;6.57;85.54;99944.25;5093851;28;20043;-80
2021/01/04 14:06:46;;;;;;;31.15;20.92;;;;;;;6.56;85.43;99953.25;5081234;28;20051;-79
2021/01/04 14:09:51;;;;;;;30.92;20.20;;;;;;;6.54;85.73;99957.84;5093707;28;20043;-79
2021/01/04 14:12:56;;;;;;;31.75;21.48;;;;;;;6.53;85.94;99951.66;5092306;28;20055;-78
2021/01/04 14:16:00;;;;;;;32.83;19.60;;;;;;;6.55;85.79;99962.19;5081096;28;20043;-77
2021/01/04 14:19:05;;;;;;;30.75;20.45;;;;;;;6.59;85.72;99963.66;5091054;28;20149;-78
2021/01/04 14:22:10;;;;;;;31.75;20.88;;;;;;;6.61;85.85;99967.06;5092720;28;20426;-78
2021/01/04 14:25:14;;;;;;;29.00;20.73;;;;;;;6.64;85.47;99956.13;5093639;28;20383;-77
2021/01/04 14:28:20;;;;;;;33.97;22.27;;;;;;;6.67;85.27;99958.56;5092917;28;20055;-80
2021/01/04 14:31:34;;;;;;;33.10;23.08;;;;;;;6.68;85.13;99964.75;5093025;28;20069;-78
2021/01/04 14:34:45;;;;;;;33.25;22.08;;;;;;;6.67;85.42;99966.56;5091715;28;20485;-78
2021/01/04 14:37:49;;;;;;;30.77;22.23;;;;;;;6.66;85.63;99970.22;5087200;28;20059;-78
2021/01/04 14:40:54;;;;;;;28.58;20.15;;;;;;;6.68;85.33;99960.28;5080717;28;20051;-77
2021/01/04 14:43:59;;;;;;;31.35;21.15;;;;;;;6.76;84.75;99981.88;5093334;28;20055;-77
2021/01/04 14:47:07;;;;;;;33.85;22.33;;;;;;;6.73;85.39;99979.44;5093391;28;20051;-79
2021/01/04 14:50:12;;;;;;;30.73;22.70;;;;;;;6.74;85.83;99982.97;5092992;28;20051;-78
2021/01/04 14:53:17;;;;;;;30.25;20.77;;;;;;;6.74;85.39;99982.97;5092745;28;20051;-79
2021/01/04 14:56:21;;;;;;;29.20;19.90;;;;;;;6.73;84.37;99975.91;5073628;28;20506;-78
2021/01/04 14:59:27;;;;;;;27.83;19.77;;;;;;;6.77;84.47;99980.88;5080601;28;20054;-78